Time;durP1;ratioP1;P1;durP2;ratioP2;P2;SDS_P1;SDS_P2;PMS_P1;PMS_P2;Temp;Humidity;BMP_temperature;BMP_pressure;BME280_temperature;BME280_humidity;BME280_pressure;Samples;Min_cycle;Max_cycle;Signal;HPM_P1;HPM_P2
2022/05/24 00:00:46;;;;;;;;;;;;;;;;;;4987243;28;19976;-80
2022/05/24 00:03:11;;;;;;;;;;;;;;;;;;4993867;28;19940;-80
2022/05/24 00:05:37;;;;;;;;;;;;;;;;;;4994171;28;19925;-83
2022/05/24 00:08:03;;;;;;;;;;;;;;;;;;4993859;28;20698;-82
2022/05/24 00:10:30;;;;;;;;;;;;;;;;;;4992735;28;20252;-83
2022/05/24 00:12:55;;;;;;;;;;;;;;;;;;4994148;28;20009;-83
2022/05/24 00:15:29;;;;;;;;;;;;;;;;;;4994094;28;20045;-81
2022/05/24 00:18:07;;;;;;;;;;;;;;;;;;4976863;28;20402;-85
2022/05/24 00:20:35;;;;;;;;;;;;;;;;;;4993687;28;19917;-83
2022/05/24 00:23:01;;;;;;;;;;;;;;;;;;4993508;28;19918;-85
2022/05/24 00:25:28;;;;;;;;;;;;;;;;;;4993972;28;20470;-81
2022/05/24 00:27:53;;;;;;;;;;;;;;;;;;4993537;28;19925;-83
2022/05/24 00:30:20;;;;;;;;;;;;;;;;;;4993724;28;19918;-81
2022/05/24 00:32:45;;;;;;;;;;;;;;;;;;4992537;28;20512;-83
2022/05/24 00:35:11;;;;;;;;;;;;;;;;;;4993987;28;19918;-83
2022/05/24 00:37:38;;;;;;;;;;;;;;;;;;4993853;28;20374;-80
2022/05/24 00:40:04;;;;;;;;;;;;;;;;;;4993365;28;19964;-83
2022/05/24 00:42:31;;;;;;;;;;;;;;;;;;4992808;28;19965;-82
2022/05/24 00:45:09;;;;;;;;;;;;;;;;;;4993212;28;19956;-84
2022/05/24 00:47:42;;;;;;;;;;;;;;;;;;4993615;28;19917;-81
2022/05/24 00:50:19;;;;;;;;;;;;;;;;;;4993362;28;19990;-80
2022/05/24 00:52:53;;;;;;;;;;;;;;;;;;4993585;28;19949;-79
2022/05/24 00:55:25;;;;;;;;;;;;;;;;;;4993578;28;19917;-80
2022/05/24 00:58:05;;;;;;;;;;;;;;;;;;4993719;28;20394;-81
2022/05/24 01:00:30;;;;;;;;;;;;;;;;;;4993096;28;19972;-80
2022/05/24 01:02:56;;;;;;;;;;;;;;;;;;4976078;28;19940;-82
2022/05/24 01:05:23;;;;;;;;;;;;;;;;;;4993052;28;20419;-80
2022/05/24 01:07:49;;;;;;;;;;;;;;;;;;4993111;28;19918;-84
2022/05/24 01:10:22;;;;;;;;;;;;;;;;;;4975882;28;19922;-85
2022/05/24 01:12:48;;;;;;;;;;;;;;;;;;4993573;28;20024;-82
2022/05/24 01:15:14;;;;;;;;;;;;;;;;;;4993438;28;20378;-82
2022/05/24 01:17:39;;;;;;;;;;;;;;;;;;4993396;28;19945;-79
2022/05/24 01:20:05;;;;;;;;;;;;;;;;;;4992700;28;19961;-80
2022/05/24 01:22:37;;;;;;;;;;;;;;;;;;4975755;28;19914;-81
2022/05/24 01:25:06;;;;;;;;;;;;;;;;;;4992799;28;19984;-85
2022/05/24 01:27:32;;;;;;;;;;;;;;;;;;4993306;28;19929;-81
2022/05/24 01:29:57;;;;;;;;;;;;;;;;;;4992665;28;19917;-83
2022/05/24 01:37:52;;;;;;;;;;;;;;;;;;4993271;28;20393;-82
2022/05/24 01:40:18;;;;;;;;;;;;;;;;;;4992727;28;19918;-84
2022/05/24 01:42:43;;;;;;;;;;;;;;;;;;4991502;28;20370;-84
2022/05/24 01:45:16;;;;;;;;;;;;;;;;;;4992639;28;19952;-82
2022/05/24 01:47:43;;;;;;;;;;;;;;;;;;4975289;28;20334;-81
2022/05/24 01:50:11;;;;;;;;;;;;;;;;;;4975460;28;19918;-86
2022/05/24 01:52:39;;;;;;;;;;;;;;;;;;4975556;28;19958;-81
2022/05/24 01:55:09;;;;;;;;;;;;;;;;;;4977838;28;19921;-81
2022/05/24 01:57:40;;;;;;;;;;;;;;;;;;4996754;28;19945;-80
2022/05/24 02:00:08;;;;;;;;;;;;;;;;;;4978846;28;20005;-79
2022/05/24 02:02:33;;;;;;;;;;;;;;;;;;4978841;28;19917;-82
2022/05/24 02:04:58;;;;;;;;;;;;;;;;;;4996001;28;19918;-82
2022/05/24 02:07:25;;;;;;;;;;;;;;;;;;4995218;28;19925;-81
2022/05/24 02:09:51;;;;;;;;;;;;;;;;;;4978360;28;20016;-80
2022/05/24 02:12:27;;;;;;;;;;;;;;;;;;4996387;28;19929;-82
2022/05/24 02:15:13;;;;;;;;;;;;;;;;;;4996367;28;20405;-79
2022/05/24 02:17:49;;;;;;;;;;;;;;;;;;4995629;28;19917;-79
2022/05/24 02:20:17;;;;;;;;;;;;;;;;;;4995870;28;19921;-81
2022/05/24 02:22:43;;;;;;;;;;;;;;;;;;4996020;28;19984;-85
2022/05/24 02:25:18;;;;;;;;;;;;;;;;;;4978284;28;19967;-79
2022/05/24 02:27:44;;;;;;;;;;;;;;;;;;4995817;28;19918;-84
2022/05/24 02:30:11;;;;;;;;;;;;;;;;;;4978110;28;20037;-81
2022/05/24 02:32:37;;;;;;;;;;;;;;;;;;4996014;28;19925;-83
2022/05/24 02:35:02;;;;;;;;;;;;;;;;;;4996242;28;19922;-85
2022/05/24 02:37:28;;;;;;;;;;;;;;;;;;4996021;28;20397;-83
2022/05/24 02:42:37;;;;;;;;;;;;;;;;;;4995461;28;19929;-81
2022/05/24 02:45:03;;;;;;;;;;;;;;;;;;4995275;28;19921;-80
2022/05/24 02:47:28;;;;;;;;;;;;;;;;;;4995816;28;19921;-81
2022/05/24 02:49:54;;;;;;;;;;;;;;;;;;4995256;28;20008;-80
2022/05/24 02:52:19;;;;;;;;;;;;;;;;;;4962065;28;19986;-80
2022/05/24 02:54:45;;;;;;;;;;;;;;;;;;4995626;28;20385;-80
2022/05/24 02:57:10;;;;;;;;;;;;;;;;;;4995578;28;19917;-81
2022/05/24 02:59:36;;;;;;;;;;;;;;;;;;4995437;28;20366;-81
2022/05/24 03:02:03;;;;;;;;;;;;;;;;;;4977788;28;20393;-83
2022/05/24 03:04:29;;;;;;;;;;;;;;;;;;4994784;28;20374;-79
2022/05/24 03:09:38;;;;;;;;;;;;;;;;;;4995316;28;19925;-80
2022/05/24 03:14:49;;;;;;;;;;;;;;;;;;4995561;28;19973;-81
2022/05/24 03:17:16;;;;;;;;;;;;;;;;;;4995261;28;19918;-83
2022/05/24 03:19:41;;;;;;;;;;;;;;;;;;4992887;28;19980;-80
2022/05/24 03:22:09;;;;;;;;;;;;;;;;;;4994742;28;19953;-82
2022/05/24 03:24:34;;;;;;;;;;;;;;;;;;4993881;28;19921;-82
2022/05/24 03:27:00;;;;;;;;;;;;;;;;;;4994981;28;19940;-81
2022/05/24 03:29:25;;;;;;;;;;;;;;;;;;4993206;28;20375;-83
2022/05/24 03:31:51;;;;;;;;;;;;;;;;;;4994956;28;19914;-82
2022/05/24 03:34:17;;;;;;;;;;;;;;;;;;4994818;28;19969;-82
2022/05/24 03:36:42;;;;;;;;;;;;;;;;;;4994716;28;19913;-79
2022/05/24 03:39:08;;;;;;;;;;;;;;;;;;4994997;28;19922;-81
2022/05/24 03:41:33;;;;;;;;;;;;;;;;;;4994412;28;20329;-84
2022/05/24 03:43:59;;;;;;;;;;;;;;;;;;4994304;28;19976;-79
2022/05/24 03:46:24;;;;;;;;;;;;;;;;;;4994271;28;19922;-82
2022/05/24 03:48:50;;;;;;;;;;;;;;;;;;4976815;28;20282;-84
2022/05/24 03:51:15;;;;;;;;;;;;;;;;;;4983139;28;20268;-78
2022/05/24 03:53:40;;;;;;;;;;;;;;;;;;4991283;28;19924;-83
2022/05/24 03:56:06;;;;;;;;;;;;;;;;;;4976975;28;19914;-82
2022/05/24 03:58:31;;;;;;;;;;;;;;;;;;4994311;28;19993;-85
2022/05/24 04:00:57;;;;;;;;;;;;;;;;;;4990369;28;19929;-78
2022/05/24 04:03:22;;;;;;;;;;;;;;;;;;4994157;28;19920;-82
2022/05/24 04:05:48;;;;;;;;;;;;;;;;;;4985801;28;19942;-81
2022/05/24 04:08:24;;;;;;;;;;;;;;;;;;4985488;28;19922;-84
2022/05/24 04:10:50;;;;;;;;;;;;;;;;;;4994175;28;20290;-85
2022/05/24 04:13:15;;;;;;;;;;;;;;;;;;4985664;28;19924;-81
2022/05/24 04:15:41;;;;;;;;;;;;;;;;;;4957457;28;20016;-83
2022/05/24 04:18:06;;;;;;;;;;;;;;;;;;4973735;28;19940;-81
2022/05/24 04:20:32;;;;;;;;;;;;;;;;;;4977125;28;19928;-82
2022/05/24 04:22:57;;;;;;;;;;;;;;;;;;4984092;28;19929;-81
2022/05/24 04:25:23;;;;;;;;;;;;;;;;;;4983196;28;19917;-84
2022/05/24 04:27:49;;;;;;;;;;;;;;;;;;4987882;28;19917;-81
2022/05/24 04:30:14;;;;;;;;;;;;;;;;;;4975294;28;20412;-82
2022/05/24 04:32:40;;;;;;;;;;;;;;;;;;4986948;28;19926;-81
2022/05/24 04:35:06;;;;;;;;;;;;;;;;;;4993035;28;19972;-80
2022/05/24 04:37:31;;;;;;;;;;;;;;;;;;4981278;28;19922;-81
2022/05/24 04:39:57;;;;;;;;;;;;;;;;;;4974290;28;20390;-82
2022/05/24 04:42:22;;;;;;;;;;;;;;;;;;4973397;28;19965;-83
2022/05/24 04:44:58;;;;;;;;;;;;;;;;;;4973466;28;19976;-83
2022/05/24 04:47:24;;;;;;;;;;;;;;;;;;4973923;28;20017;-83
2022/05/24 04:49:53;;;;;;;;;;;;;;;;;;4973540;28;19922;-81
2022/05/24 04:52:19;;;;;;;;;;;;;;;;;;4973829;28;19915;-79
2022/05/24 04:54:45;;;;;;;;;;;;;;;;;;4972704;28;19972;-79
2022/05/24 04:57:11;;;;;;;;;;;;;;;;;;4974691;28;20359;-86
2022/05/24 04:59:37;;;;;;;;;;;;;;;;;;4991703;28;19918;-77
2022/05/24 05:02:03;;;;;;;;;;;;;;;;;;4975171;28;19926;-84
2022/05/24 05:04:29;;;;;;;;;;;;;;;;;;4993286;28;19964;-80
2022/05/24 05:06:54;;;;;;;;;;;;;;;;;;4992777;28;19965;-85
2022/05/24 05:09:20;;;;;;;;;;;;;;;;;;4975540;28;19918;-81
2022/05/24 05:11:46;;;;;;;;;;;;;;;;;;4993098;28;19918;-84
2022/05/24 05:14:11;;;;;;;;;;;;;;;;;;4992833;28;19917;-79
2022/05/24 05:16:38;;;;;;;;;;;;;;;;;;4975502;28;19925;-85
2022/05/24 05:19:05;;;;;;;;;;;;;;;;;;4992954;28;19922;-84
2022/05/24 05:21:31;;;;;;;;;;;;;;;;;;4992685;28;19925;-86
2022/05/24 05:23:57;;;;;;;;;;;;;;;;;;4992866;28;19918;-86
2022/05/24 05:37:22;;;;;;;;;;;;;;;;;;5151408;27;19915;-75
2022/05/24 05:39:48;;;;;;;;;;;;;;;;;;5151335;27;20007;-78
2022/05/24 05:42:13;;;;;;;;;;;;;;;;;;5151362;27;20006;-75
2022/05/24 05:44:39;;;;;;;;;;;;;;;;;;5151117;27;19959;-79
2022/05/24 05:47:05;;;;;;;;;;;;;;;;;;5151078;27;19925;-75
2022/05/24 05:49:30;;;;;;;;;;;;;;;;;;5150106;27;19994;-77
2022/05/24 05:51:56;;;;;;;;;;;;;;;;;;5151093;27;19922;-75
2022/05/24 05:54:21;;;;;;;;;;;;;;;;;;5149874;27;19938;-77
2022/05/24 05:56:47;;;;;;;;;;;;;;;;;;5151086;27;19919;-75
2022/05/24 05:59:12;;;;;;;;;;;;;;;;;;5151274;27;19916;-76
2022/05/24 06:01:38;;;;;;;;;;;;;;;;;;5140253;27;19934;-78
2022/05/24 06:04:04;;;;;;;;;;;;;;;;;;5139877;27;19927;-79
2022/05/24 06:06:31;;;;;;;;;;;;;;;;;;5134616;27;19926;-80
2022/05/24 06:08:56;;;;;;;;;;;;;;;;;;5131314;27;19916;-79
2022/05/24 06:11:23;;;;;;;;;;;;;;;;;;5148069;27;20332;-77
2022/05/24 06:13:49;;;;;;;;;;;;;;;;;;5151757;27;19915;-81
2022/05/24 06:16:14;;;;;;;;;;;;;;;;;;5138634;27;20054;-80
2022/05/24 06:18:40;;;;;;;;;;;;;;;;;;5150051;27;19921;-84
2022/05/24 06:21:06;;;;;;;;;;;;;;;;;;5136851;27;19927;-88
2022/05/24 06:23:31;;;;;;;;;;;;;;;;;;5137825;27;19915;-90
2022/05/24 06:25:57;;;;;;;;;;;;;;;;;;5139483;27;19926;-80
2022/05/24 06:28:22;;;;;;;;;;;;;;;;;;5137872;27;19920;-84
2022/05/24 06:30:48;;;;;;;;;;;;;;;;;;5130641;27;20355;-85
2022/05/24 06:33:13;;;;;;;;;;;;;;;;;;5145621;27;19943;-89
2022/05/24 06:35:40;;;;;;;;;;;;;;;;;;5130594;27;19919;-88
2022/05/24 06:38:05;;;;;;;;;;;;;;;;;;5128671;27;19919;-86
2022/05/24 06:40:31;;;;;;;;;;;;;;;;;;5127244;27;20374;-84
2022/05/24 06:42:57;;;;;;;;;;;;;;;;;;5129764;27;19927;-82
2022/05/24 06:45:22;;;;;;;;;;;;;;;;;;5119284;27;20456;-88
2022/05/24 06:47:48;;;;;;;;;;;;;;;;;;5119906;27;19994;-85
2022/05/24 06:50:14;;;;;;;;;;;;;;;;;;5137556;27;19916;-88
2022/05/24 06:52:40;;;;;;;;;;;;;;;;;;5137021;27;19968;-85
2022/05/24 06:55:06;;;;;;;;;;;;;;;;;;5137244;27;20379;-81
2022/05/24 06:57:32;;;;;;;;;;;;;;;;;;5137032;27;19998;-83
2022/05/24 07:02:41;;;;;;;;;;;;;;;;;;5137132;27;19984;-86
2022/05/24 07:05:07;;;;;;;;;;;;;;;;;;5137118;27;20426;-83
2022/05/24 07:07:33;;;;;;;;;;;;;;;;;;5136870;27;19916;-80
2022/05/24 07:09:59;;;;;;;;;;;;;;;;;;5137120;27;19915;-84
2022/05/24 07:12:25;;;;;;;;;;;;;;;;;;5137068;27;19919;-77
2022/05/24 07:14:51;;;;;;;;;;;;;;;;;;5136830;27;19926;-78
2022/05/24 07:17:17;;;;;;;;;;;;;;;;;;5136830;27;19984;-82
2022/05/24 07:19:43;;;;;;;;;;;;;;;;;;5136703;27;19961;-81
2022/05/24 07:22:08;;;;;;;;;;;;;;;;;;5136715;27;19916;-75
2022/05/24 07:24:34;;;;;;;;;;;;;;;;;;5136689;27;19941;-83
2022/05/24 07:27:00;;;;;;;;;;;;;;;;;;5136584;27;19927;-76
2022/05/24 07:29:25;;;;;;;;;;;;;;;;;;5136546;27;19915;-83
2022/05/24 07:31:51;;;;;;;;;;;;;;;;;;5136616;27;19915;-76
2022/05/24 07:34:17;;;;;;;;;;;;;;;;;;5136854;27;20397;-79
2022/05/24 07:36:42;;;;;;;;;;;;;;;;;;5136415;27;20290;-87
2022/05/24 07:39:07;;;;;;;;;;;;;;;;;;5136579;27;19915;-86
2022/05/24 07:47:03;;;;;;;;;;;;;;;;;;5147594;27;19949;-78
2022/05/24 07:49:28;;;;;;;;;;;;;;;;;;5137067;27;20328;-77
2022/05/24 07:51:54;;;;;;;;;;;;;;;;;;5136237;27;19998;-85
2022/05/24 07:54:19;;;;;;;;;;;;;;;;;;5136652;27;20006;-86
2022/05/24 07:56:44;;;;;;;;;;;;;;;;;;5134876;27;19916;-85
2022/05/24 07:59:10;;;;;;;;;;;;;;;;;;5135919;27;19919;-86
2022/05/24 08:01:36;;;;;;;;;;;;;;;;;;5136314;27;19960;-86
2022/05/24 08:04:02;;;;;;;;;;;;;;;;;;5135877;27;19922;-86
2022/05/24 08:06:27;;;;;;;;;;;;;;;;;;5136084;27;20378;-85
2022/05/24 08:08:53;;;;;;;;;;;;;;;;;;5135888;27;20434;-75
2022/05/24 08:11:18;;;;;;;;;;;;;;;;;;5135838;27;19918;-84
2022/05/24 08:13:44;;;;;;;;;;;;;;;;;;5135709;27;19926;-87
2022/05/24 08:16:09;;;;;;;;;;;;;;;;;;5135797;27;19915;-83
2022/05/24 08:18:34;;;;;;;;;;;;;;;;;;5135539;27;19911;-82
2022/05/24 08:21:00;;;;;;;;;;;;;;;;;;5135705;27;20289;-86
2022/05/24 08:23:29;;;;;;;;;;;;;;;;;;5135571;27;19943;-77
2022/05/24 08:25:55;;;;;;;;;;;;;;;;;;5135638;27;19915;-86
2022/05/24 08:28:21;;;;;;;;;;;;;;;;;;5135389;27;19942;-85
2022/05/24 08:30:46;;;;;;;;;;;;;;;;;;5135761;27;19972;-78
2022/05/24 08:33:14;;;;;;;;;;;;;;;;;;5135473;27;19916;-86
2022/05/24 08:35:39;;;;;;;;;;;;;;;;;;5135268;27;20243;-79
2022/05/24 08:38:05;;;;;;;;;;;;;;;;;;5135365;27;19923;-82
2022/05/24 08:40:33;;;;;;;;;;;;;;;;;;5135156;27;19919;-79
2022/05/24 08:42:59;;;;;;;;;;;;;;;;;;5135474;27;19921;-87
2022/05/24 08:48:29;;;;;;;;;;;;;;;;;;5134946;27;19926;-78
2022/05/24 08:51:01;;;;;;;;;;;;;;;;;;5135415;27;19959;-87
2022/05/24 08:53:39;;;;;;;;;;;;;;;;;;5135147;27;20263;-77
2022/05/24 08:56:06;;;;;;;;;;;;;;;;;;5135202;27;19915;-75
2022/05/24 08:58:36;;;;;;;;;;;;;;;;;;5134994;27;19916;-76
2022/05/24 09:01:14;;;;;;;;;;;;;;;;;;5133325;27;19919;-85
2022/05/24 09:03:40;;;;;;;;;;;;;;;;;;5134804;27;19916;-78
2022/05/24 09:06:28;;;;;;;;;;;;;;;;;;5134973;27;20385;-85
2022/05/24 09:09:02;;;;;;;;;;;;;;;;;;5134662;27;19915;-86
2022/05/24 09:11:38;;;;;;;;;;;;;;;;;;5134931;27;19922;-80
2022/05/24 09:14:09;;;;;;;;;;;;;;;;;;5133523;27;20087;-81
2022/05/24 09:16:54;;;;;;;;;;;;;;;;;;5134864;27;20006;-86
2022/05/24 09:19:25;;;;;;;;;;;;;;;;;;5134527;27;19980;-87
2022/05/24 09:21:53;;;;;;;;;;;;;;;;;;5134427;27;19946;-79
2022/05/24 09:24:21;;;;;;;;;;;;;;;;;;5134602;27;19916;-85
2022/05/24 09:27:04;;;;;;;;;;;;;;;;;;5134562;27;19916;-86
2022/05/24 09:29:31;;;;;;;;;;;;;;;;;;5133085;28;19915;-85
2022/05/24 09:31:57;;;;;;;;;;;;;;;;;;5134723;27;19938;-85
2022/05/24 09:34:33;;;;;;;;;;;;;;;;;;5133306;28;20378;-87
2022/05/24 09:37:23;;;;;;;;;;;;;;;;;;5134360;27;19919;-82
2022/05/24 09:39:57;;;;;;;;;;;;;;;;;;5134735;27;19915;-82
2022/05/24 09:42:24;;;;;;;;;;;;;;;;;;5134608;27;19912;-76
2022/05/24 09:44:56;;;;;;;;;;;;;;;;;;5134790;27;20302;-87
2022/05/24 09:47:29;;;;;;;;;;;;;;;;;;5134416;27;19916;-87
2022/05/24 09:50:14;;;;;;;;;;;;;;;;;;5134509;27;20391;-82
2022/05/24 09:52:39;;;;;;;;;;;;;;;;;;5134338;28;19915;-80
2022/05/24 09:55:05;;;;;;;;;;;;;;;;;;5132977;28;20446;-85
2022/05/24 09:57:32;;;;;;;;;;;;;;;;;;5134171;27;20006;-78
2022/05/24 10:00:20;;;;;;;;;;;;;;;;;;5134447;27;19916;-86
2022/05/24 10:02:46;;;;;;;;;;;;;;;;;;5134235;27;19968;-85
2022/05/24 10:05:19;;;;;;;;;;;;;;;;;;5129581;27;19961;-86
2022/05/24 10:07:55;;;;;;;;;;;;;;;;;;5132718;28;19919;-80
2022/05/24 10:10:24;;;;;;;;;;;;;;;;;;5134385;27;20021;-85
2022/05/24 10:13:09;;;;;;;;;;;;;;;;;;5132035;27;19970;-79
2022/05/24 10:15:49;;;;;;;;;;;;;;;;;;5109925;28;20015;-85
2022/05/24 10:18:20;;;;;;;;;;;;;;;;;;5136069;27;20372;-83
2022/05/24 10:20:49;;;;;;;;;;;;;;;;;;5130553;27;20006;-85
2022/05/24 10:23:23;;;;;;;;;;;;;;;;;;5121269;27;19998;-84
2022/05/24 10:26:07;;;;;;;;;;;;;;;;;;5124551;27;19922;-80
2022/05/24 10:28:44;;;;;;;;;;;;;;;;;;5115801;28;19974;-82
2022/05/24 10:31:13;;;;;;;;;;;;;;;;;;5125331;27;19922;-80
2022/05/24 10:39:45;;;;;;;;;;;;;;;;;;5119382;27;20064;-82
2022/05/24 10:42:19;;;;;;;;;;;;;;;;;;5134295;27;20295;-79
2022/05/24 10:44:50;;;;;;;;;;;;;;;;;;5126253;27;19924;-76
2022/05/24 10:47:24;;;;;;;;;;;;;;;;;;5124858;27;19916;-79
2022/05/24 10:50:01;;;;;;;;;;;;;;;;;;5116704;28;20006;-76
2022/05/24 10:52:33;;;;;;;;;;;;;;;;;;5116651;28;20006;-77
2022/05/24 10:55:05;;;;;;;;;;;;;;;;;;5116457;28;19916;-79
2022/05/24 10:57:33;;;;;;;;;;;;;;;;;;5129717;27;19969;-78
2022/05/24 11:00:17;;;;;;;;;;;;;;;;;;5137259;27;19926;-82
2022/05/24 11:02:47;;;;;;;;;;;;;;;;;;5137026;27;20369;-79
2022/05/24 11:05:13;;;;;;;;;;;;;;;;;;5136970;27;19915;-80
2022/05/24 11:07:38;;;;;;;;;;;;;;;;;;5137013;27;19915;-79
2022/05/24 11:10:09;;;;;;;;;;;;;;;;;;5137022;27;19923;-76
2022/05/24 11:12:44;;;;;;;;;;;;;;;;;;5135249;27;19968;-77
2022/05/24 11:15:16;;;;;;;;;;;;;;;;;;5136622;27;20367;-77
2022/05/24 11:17:42;;;;;;;;;;;;;;;;;;5136910;27;19968;-81
2022/05/24 11:20:09;;;;;;;;;;;;;;;;;;5122777;27;19923;-78
2022/05/24 11:22:42;;;;;;;;;;;;;;;;;;5122946;27;20044;-83
2022/05/24 11:25:20;;;;;;;;;;;;;;;;;;5121305;27;19919;-81
2022/05/24 11:27:50;;;;;;;;;;;;;;;;;;5120576;27;19927;-81
2022/05/24 11:30:19;;;;;;;;;;;;;;;;;;5120967;27;20397;-80
2022/05/24 11:32:50;;;;;;;;;;;;;;;;;;5121594;27;20301;-78
2022/05/24 11:35:18;;;;;;;;;;;;;;;;;;5119326;27;19934;-81
2022/05/24 11:37:45;;;;;;;;;;;;;;;;;;5121563;27;19959;-76
2022/05/24 11:40:32;;;;;;;;;;;;;;;;;;5126515;27;19924;-79
2022/05/24 11:43:02;;;;;;;;;;;;;;;;;;5124346;27;19934;-76
2022/05/24 11:45:28;;;;;;;;;;;;;;;;;;5122414;27;20049;-76
2022/05/24 11:47:53;;;;;;;;;;;;;;;;;;5129405;27;20390;-77
2022/05/24 11:50:31;;;;;;;;;;;;;;;;;;5128544;27;20324;-75
2022/05/24 11:53:15;;;;;;;;;;;;;;;;;;5131137;27;19916;-78
2022/05/24 11:55:41;;;;;;;;;;;;;;;;;;5126895;27;20302;-77
2022/05/24 11:58:21;;;;;;;;;;;;;;;;;;5119829;27;19919;-78
2022/05/24 12:01:05;;;;;;;;;;;;;;;;;;5153036;27;20302;-76
2022/05/24 12:09:16;;;;;;;;;;;;;;;;;;5134128;27;20007;-82
2022/05/24 12:11:42;;;;;;;;;;;;;;;;;;5131546;27;19926;-81
2022/05/24 12:14:13;;;;;;;;;;;;;;;;;;5124259;27;19919;-80
2022/05/24 12:16:47;;;;;;;;;;;;;;;;;;5115004;28;19916;-79
2022/05/24 12:19:40;;;;;;;;;;;;;;;;;;5113871;28;20316;-76
2022/05/24 12:22:08;;;;;;;;;;;;;;;;;;5110593;27;19920;-81
2022/05/24 12:24:42;;;;;;;;;;;;;;;;;;5114965;28;19915;-78
2022/05/24 12:27:08;;;;;;;;;;;;;;;;;;5114741;28;19916;-82
2022/05/24 12:29:33;;;;;;;;;;;;;;;;;;5114991;28;19923;-78
2022/05/24 12:32:07;;;;;;;;;;;;;;;;;;5114775;28;20349;-84
2022/05/24 12:34:33;;;;;;;;;;;;;;;;;;5117227;27;19934;-78
2022/05/24 12:37:00;;;;;;;;;;;;;;;;;;5119873;27;19942;-79
2022/05/24 12:39:26;;;;;;;;;;;;;;;;;;5154251;27;20383;-76
2022/05/24 12:41:56;;;;;;;;;;;;;;;;;;5118649;27;20291;-77
2022/05/24 12:44:23;;;;;;;;;;;;;;;;;;5121843;27;19924;-76
2022/05/24 12:46:59;;;;;;;;;;;;;;;;;;5120642;27;20000;-78
2022/05/24 12:49:28;;;;;;;;;;;;;;;;;;5121026;27;20344;-76
2022/05/24 12:52:14;;;;;;;;;;;;;;;;;;5122706;27;20370;-79
2022/05/24 12:54:47;;;;;;;;;;;;;;;;;;5118672;27;20325;-83
2022/05/24 12:57:16;;;;;;;;;;;;;;;;;;5118172;27;19927;-76
2022/05/24 12:59:43;;;;;;;;;;;;;;;;;;5120474;27;19958;-76
2022/05/24 13:02:21;;;;;;;;;;;;;;;;;;5120769;27;19919;-81
2022/05/24 13:04:47;;;;;;;;;;;;;;;;;;5120530;27;19923;-81
2022/05/24 13:07:18;;;;;;;;;;;;;;;;;;5119484;27;19927;-77
2022/05/24 13:09:44;;;;;;;;;;;;;;;;;;5118863;27;20027;-74
2022/05/24 13:12:11;;;;;;;;;;;;;;;;;;5120677;27;19920;-78
2022/05/24 13:14:40;;;;;;;;;;;;;;;;;;5120072;27;19927;-78
2022/05/24 13:17:07;;;;;;;;;;;;;;;;;;5118244;27;19938;-82
2022/05/24 13:19:46;;;;;;;;;;;;;;;;;;5127525;27;20408;-81
2022/05/24 13:22:11;;;;;;;;;;;;;;;;;;5115433;27;19926;-78
2022/05/24 13:24:47;;;;;;;;;;;;;;;;;;5113805;28;19917;-83
2022/05/24 13:27:12;;;;;;;;;;;;;;;;;;5112374;28;19915;-78
2022/05/24 13:35:06;;;;;;;;;;;;;;;;;;5113812;28;19961;-82
2022/05/24 13:37:51;;;;;;;;;;;;;;;;;;5114031;28;19920;-83
2022/05/24 13:40:17;;;;;;;;;;;;;;;;;;5113792;28;20425;-81
2022/05/24 13:42:56;;;;;;;;;;;;;;;;;;5117087;27;20014;-81
2022/05/24 13:45:21;;;;;;;;;;;;;;;;;;5134074;27;19923;-84
2022/05/24 13:47:48;;;;;;;;;;;;;;;;;;5134784;27;20371;-82
2022/05/24 13:50:19;;;;;;;;;;;;;;;;;;5136712;27;20464;-78
2022/05/24 13:52:52;;;;;;;;;;;;;;;;;;5135722;27;19983;-83
2022/05/24 13:58:40;;;;;;;;;;;;;;;;;;5456029;22;19950;-89
2022/05/24 14:04:16;;;;;;;;;;;;;;;;;;5014924;28;20431;-89
2022/05/24 14:09:44;;;;;;;;;;;;;;;;;;5015323;28;19928;-89
2022/05/24 14:25:55;;;;;;;;;;;;;;;;;;5119276;22;20030;-90
2022/05/24 14:37:01;;;;;;;;;;;;;;;;;;5821314;22;19998;-90
2022/05/24 14:39:27;;;;;;;;;;;;;;;;;;5078040;28;19963;-92
2022/05/24 14:44:29;;;;;;;;;;;;;;;;;;3966867;22;19931;-89
2022/05/24 14:49:30;;;;;;;;;;;;;;;;;;3103048;22;19935;-90
2022/05/24 14:58:18;;;;;;;;;;;;;;;;;;5096086;28;20054;-89
2022/05/24 15:00:44;;;;;;;;;;;;;;;;;;5077952;28;20038;-91
2022/05/24 15:03:09;;;;;;;;;;;;;;;;;;5096170;28;19916;-91
2022/05/24 15:05:35;;;;;;;;;;;;;;;;;;5095739;28;19916;-93
2022/05/24 15:16:14;;;;;;;;;;;;;;;;;;5096453;28;19919;-89
2022/05/24 15:18:40;;;;;;;;;;;;;;;;;;5077648;28;19916;-89
2022/05/24 15:21:05;;;;;;;;;;;;;;;;;;5095676;28;19916;-90
2022/05/24 15:23:32;;;;;;;;;;;;;;;;;;5095849;28;19920;-89
2022/05/24 15:26:05;;;;;;;;;;;;;;;;;;5094514;28;19924;-89
2022/05/24 15:28:32;;;;;;;;;;;;;;;;;;5094234;28;19923;-90
2022/05/24 15:30:58;;;;;;;;;;;;;;;;;;5093870;28;20333;-89
2022/05/24 15:33:23;;;;;;;;;;;;;;;;;;5095554;28;20389;-93
2022/05/24 15:35:49;;;;;;;;;;;;;;;;;;5078901;28;19986;-90
2022/05/24 15:38:15;;;;;;;;;;;;;;;;;;5095638;28;19912;-91
2022/05/24 15:40:41;;;;;;;;;;;;;;;;;;5095808;28;19916;-91
2022/05/24 15:43:06;;;;;;;;;;;;;;;;;;5096186;28;20398;-91
2022/05/24 15:45:33;;;;;;;;;;;;;;;;;;5077725;28;20394;-91
2022/05/24 15:47:59;;;;;;;;;;;;;;;;;;5077873;28;19920;-89
2022/05/24 15:50:24;;;;;;;;;;;;;;;;;;5078122;28;20259;-93
2022/05/24 15:52:50;;;;;;;;;;;;;;;;;;5094325;28;20296;-94
2022/05/24 15:55:15;;;;;;;;;;;;;;;;;;5098148;28;19922;-93
2022/05/24 15:57:41;;;;;;;;;;;;;;;;;;5098127;28;20325;-92
2022/05/24 16:00:10;;;;;;;;;;;;;;;;;;5078059;28;19928;-92
2022/05/24 16:02:36;;;;;;;;;;;;;;;;;;5069153;28;19917;-91
2022/05/24 16:10:33;;;;;;;;;;;;;;;;;;5099604;28;20871;-92
2022/05/24 16:13:06;;;;;;;;;;;;;;;;;;5119901;28;19927;-92
2022/05/24 16:15:32;;;;;;;;;;;;;;;;;;5120734;28;19927;-91
2022/05/24 16:18:04;;;;;;;;;;;;;;;;;;5121477;28;19982;-90
2022/05/24 16:20:36;;;;;;;;;;;;;;;;;;5123868;28;19916;-91
2022/05/24 16:23:05;;;;;;;;;;;;;;;;;;5124844;28;19916;-91
2022/05/24 16:25:36;;;;;;;;;;;;;;;;;;5106323;28;19924;-91
2022/05/24 16:28:02;;;;;;;;;;;;;;;;;;5105374;28;19923;-92
2022/05/24 16:30:28;;;;;;;;;;;;;;;;;;5122793;28;19947;-91
2022/05/24 16:32:58;;;;;;;;;;;;;;;;;;5122238;28;19923;-91
2022/05/24 16:35:25;;;;;;;;;;;;;;;;;;5122716;28;19920;-91
2022/05/24 16:37:51;;;;;;;;;;;;;;;;;;5123764;28;19916;-91
2022/05/24 16:40:17;;;;;;;;;;;;;;;;;;5105361;28;19915;-91
2022/05/24 16:42:43;;;;;;;;;;;;;;;;;;5104867;28;19923;-90
2022/05/24 16:45:12;;;;;;;;;;;;;;;;;;5105673;28;19916;-92
2022/05/24 16:47:41;;;;;;;;;;;;;;;;;;5124433;28;19922;-92
2022/05/24 16:50:11;;;;;;;;;;;;;;;;;;5105180;28;19922;-90
2022/05/24 16:52:36;;;;;;;;;;;;;;;;;;5088177;28;20352;-91
2022/05/24 17:00:30;;;;;;;;;;;;;;;;;;5102858;28;19922;-91
2022/05/24 17:02:59;;;;;;;;;;;;;;;;;;5100975;28;20341;-91
2022/05/24 17:05:51;;;;;;;;;;;;;;;;;;5104161;28;19969;-91
2022/05/24 17:08:17;;;;;;;;;;;;;;;;;;5103157;28;19923;-92
2022/05/24 17:10:42;;;;;;;;;;;;;;;;;;5100694;28;19916;-91
2022/05/24 17:13:08;;;;;;;;;;;;;;;;;;5102982;28;19965;-91
2022/05/24 17:15:34;;;;;;;;;;;;;;;;;;5101440;28;19919;-91
2022/05/24 17:18:00;;;;;;;;;;;;;;;;;;5083205;28;19920;-88
2022/05/24 17:20:28;;;;;;;;;;;;;;;;;;5101477;28;19916;-91
2022/05/24 17:22:53;;;;;;;;;;;;;;;;;;5100971;28;19920;-91
2022/05/24 17:25:20;;;;;;;;;;;;;;;;;;5100181;28;19916;-92
2022/05/24 17:27:45;;;;;;;;;;;;;;;;;;5099923;28;19939;-91
2022/05/24 17:30:11;;;;;;;;;;;;;;;;;;5100938;28;19912;-90
2022/05/24 17:32:57;;;;;;;;;;;;;;;;;;5101789;28;19916;-91
2022/05/24 17:35:23;;;;;;;;;;;;;;;;;;5102103;28;19924;-91
2022/05/24 17:37:49;;;;;;;;;;;;;;;;;;5103782;28;20287;-91
2022/05/24 17:40:24;;;;;;;;;;;;;;;;;;5103860;28;19956;-91
2022/05/24 17:42:52;;;;;;;;;;;;;;;;;;5104377;28;19977;-91
2022/05/24 17:45:18;;;;;;;;;;;;;;;;;;5086111;28;19948;-92
2022/05/24 17:47:51;;;;;;;;;;;;;;;;;;5106533;28;19920;-91
2022/05/24 17:50:20;;;;;;;;;;;;;;;;;;5106063;28;19916;-92
2022/05/24 17:52:47;;;;;;;;;;;;;;;;;;5096218;28;19978;-92
2022/05/24 17:55:12;;;;;;;;;;;;;;;;;;5089272;28;19938;-92
2022/05/24 17:57:41;;;;;;;;;;;;;;;;;;5104127;28;19923;-91
2022/05/24 18:00:08;;;;;;;;;;;;;;;;;;5086553;28;20341;-89
2022/05/24 18:02:37;;;;;;;;;;;;;;;;;;5089690;28;19924;-93
2022/05/24 18:05:02;;;;;;;;;;;;;;;;;;5075693;28;19924;-90
2022/05/24 18:07:28;;;;;;;;;;;;;;;;;;5067887;28;20265;-93
2022/05/24 18:09:53;;;;;;;;;;;;;;;;;;5070865;28;20010;-91
2022/05/24 18:12:22;;;;;;;;;;;;;;;;;;5062284;28;19927;-92
2022/05/24 18:14:49;;;;;;;;;;;;;;;;;;5071254;28;19974;-92
2022/05/24 18:17:15;;;;;;;;;;;;;;;;;;5076258;28;19927;-92
2022/05/24 18:19:41;;;;;;;;;;;;;;;;;;5066993;28;19947;-92
2022/05/24 18:22:11;;;;;;;;;;;;;;;;;;5082567;28;20017;-92
2022/05/24 18:24:38;;;;;;;;;;;;;;;;;;5081380;28;19920;-94
2022/05/24 18:35:21;;;;;;;;;;;;;;;;;;5082945;28;19996;-95
2022/05/24 18:37:47;;;;;;;;;;;;;;;;;;5075285;28;19920;-94
2022/05/24 18:40:14;;;;;;;;;;;;;;;;;;5073121;28;19928;-93
2022/05/24 18:42:41;;;;;;;;;;;;;;;;;;5070635;28;19974;-95
2022/05/24 18:45:11;;;;;;;;;;;;;;;;;;5087412;28;20046;-92
2022/05/24 18:47:39;;;;;;;;;;;;;;;;;;5091055;28;19919;-93
2022/05/24 18:50:07;;;;;;;;;;;;;;;;;;5084725;28;19924;-92
2022/05/24 18:52:35;;;;;;;;;;;;;;;;;;5089253;28;19975;-92
2022/05/24 18:55:06;;;;;;;;;;;;;;;;;;5090112;28;19920;-93
2022/05/24 18:57:31;;;;;;;;;;;;;;;;;;5089332;28;19924;-94